Latest Weather Observations for Bunbury

IDW60801

Issued at 11:33 pm WST Monday 21 August 2017 (issued every 30 minutes, with the page automatically refreshed every 10 minutes)

About weather observations | Map of weather stations | Latest weather observations for WA | Other Formats
Station Details ID: 009965 Name: BUNBURY Lat: -33.36 Lon: 115.64 Height: 5.2 m
Data from the previous 72 hours. | See also: Recent months at Bunbury
Date/Time
WST
Temp
°C
App
Temp
°C
Dew
Point
°C
Rel
Hum
%
Delta-T
°C
Wind Press
QNH
hPa
Press
MSL
hPa
Rain since
9am
mm
Dir  Spd
km/h
Gust
km/h
Spd
kts
Gust
kts
21/11:30pm 11.9 10.6 9.3 84 1.3 SSW 6 15 3 8 1020.7 1020.7 0.2
21/11:00pm 11.7 10.7 8.9 83 1.4 SE 4 6 2 3 1020.9 1020.9 0.2
21/10:30pm 12.2 11.3 9.4 83 1.4 S 4 6 2 3 1021.2 1021.2 0.2
21/10:00pm 12.3 11.7 8.8 79 1.7 WSW 2 4 1 2 1021.4 1021.4 0.2
21/09:30pm 12.1 10.4 8.2 77 1.9 SSW 7 13 4 7 1021.5 1021.5 0.2
21/09:00pm 13.3 10.1 8.6 73 2.3 WSW 15 26 8 14 1021.2 1021.2 0.2
21/08:30pm 13.9 12.6 7.7 66 3.1 WNW 4 7 2 4 1020.7 1020.7 0.2
21/08:00pm 13.6 12.3 7.8 68 2.8 WNW 4 6 2 3 1020.6 1020.6 0.2
21/07:30pm 13.9 12.8 7.0 63 3.4 WSW 2 4 1 2 1020.4 1020.4 0.2
21/07:00pm 14.2 12.0 6.1 58 3.9 SW 7 13 4 7 1020.2 1020.2 0.2
21/06:30pm 13.7 11.2 6.6 62 3.4 WSW 9 13 5 7 1020.1 1020.1 0.2
21/06:00pm 13.8 11.4 6.9 63 3.3 WSW 9 17 5 9 1020.0 1020.0 0.2
21/05:30pm 14.7 12.2 6.5 58 4.0 WSW 9 17 5 9 1019.8 1019.8 0.2
21/05:00pm 14.8 12.0 7.1 60 3.8 WSW 11 17 6 9 1019.6 1019.6 0.2
21/04:30pm 14.8 11.8 7.6 62 3.6 W 13 20 7 11 1019.5 1019.5 0.2
21/04:00pm 15.2 12.7 8.2 63 3.5 W 11 17 6 9 1019.5 1019.5 0.2
21/03:30pm 15.6 12.3 7.9 60 3.9 W 15 22 8 12 1019.6 1019.6 0.2
21/03:00pm 15.7 12.0 8.0 60 3.9 WNW 17 24 9 13 1019.8 1019.8 0.2
21/02:30pm 15.9 12.8 8.9 63 3.6 W 15 20 8 11 1019.7 1019.7 0.2
21/02:00pm 16.5 13.5 9.2 62 3.8 W 15 20 8 11 1019.9 1019.9 0.2
21/01:30pm 16.2 12.2 8.2 59 4.0 WNW 19 26 10 14 1020.1 1020.1 0.2
21/01:00pm 15.8 12.2 8.3 61 3.8 W 17 26 9 14 1020.6 1020.6 0.0
21/12:30pm 15.5 12.5 9.4 67 3.1 WSW 15 24 8 13 1021.0 1021.0 0.0
21/12:00pm 15.2 13.0 9.3 68 3.0 WSW 11 19 6 10 1021.6 1021.6 0.0
21/11:30am 14.9 11.6 8.2 64 3.4 WSW 15 22 8 12 1021.8 1021.8 0.0
21/11:00am 14.9 11.7 10.1 73 2.5 WSW 17 32 9 17 1022.2 1022.2 0.0
21/10:30am 14.5 11.3 9.9 74 2.4 WSW 17 26 9 14 1022.5 1022.5 0.0
21/10:00am 14.4 11.0 10.4 77 2.1 WSW 19 28 10 15 1022.5 1022.5 0.0
21/09:30am 14.1 13.3 11.1 82 1.6 WSW 6 13 3 7 1022.4 1022.4 0.0
21/09:00am 12.5 11.3 10.4 87 1.1 SSW 7 11 4 6 1022.4 1022.4 0.8
21/08:30am 12.0 8.3 9.6 85 1.2 WSW 19 32 10 17 1022.6 1022.6 0.8
21/08:00am 12.4 9.5 9.6 83 1.4 SW 15 22 8 12 1022.4 1022.4 0.8
21/07:30am 12.7 11.3 9.5 81 1.6 WSW 7 15 4 8 1021.9 1021.9 0.8
21/07:00am 12.6 10.0 10.8 89 0.9 WSW 15 26 8 14 1021.8 1021.8 0.8
21/06:30am 11.5 10.5 10.4 93 0.6 SSW 6 11 3 6 1021.6 1021.6 0.8
21/06:00am 10.9 10.5 9.8 93 0.6 NNE 2 4 1 2 1021.5 1021.5 0.8
21/05:30am 11.0 10.6 9.8 92 0.6 ENE 2 4 1 2 1021.5 1021.5 0.8
21/05:00am 10.7 10.6 9.5 92 0.6 CALM 0 0 0 0 1021.6 1021.6 0.8
21/04:30am 10.4 9.5 9.2 92 0.6 ESE 4 4 2 2 1021.5 1021.5 0.8
21/04:00am 11.2 11.2 9.8 91 0.7 CALM 0 0 0 0 1021.7 1021.7 0.8
21/03:30am 11.2 10.4 9.8 91 0.7 ENE 4 6 2 3 1021.7 1021.7 0.2
21/03:00am 11.2 10.8 9.6 90 0.8 SSE 2 4 1 2 1021.9 1021.9 0.2
21/02:30am 11.8 10.6 10.2 90 0.8 SSW 7 11 4 6 1022.2 1022.2 0.2
21/02:00am 10.7 10.1 8.8 88 0.9 NE 2 6 1 3 1022.4 1022.4 0.2
21/01:30am 11.3 10.0 9.2 87 1.0 S 6 7 3 4 1022.3 1022.3 0.2
21/01:00am 12.3 10.6 9.7 84 1.3 SW 9 15 5 8 1022.4 1022.4 0.2
21/12:30am 11.6 10.9 8.6 82 1.5 S 2 4 1 2 1022.6 1022.6 0.2
21/12:00am 12.6 11.2 8.9 78 1.8 WSW 6 11 3 6 1022.8 1022.8 0.2
 
Date/Time
WST
Temp
°C
App
Temp
°C
Dew
Point
°C
Rel
Hum
%
Delta-T
°C
Wind Press
QNH
hPa
Press
MSL
hPa
Rain since
9am
mm
Dir  Spd
km/h
Gust
km/h
Spd
kts
Gust
kts
20/11:30pm 12.7 11.5 8.2 74 2.2 WNW 4 7 2 4 1022.9 1022.9 0.2
20/11:00pm 12.1 10.1 8.6 79 1.7 WNW 9 17 5 9 1023.2 1023.2 0.2
20/10:30pm 12.4 11.2 8.1 75 2.1 SW 4 6 2 3 1023.3 1023.3 0.2
20/10:00pm 13.1 11.4 8.4 73 2.3 WSW 7 13 4 7 1023.4 1023.4 0.2
20/09:30pm 13.5 11.5 8.8 73 2.4 SW 9 15 5 8 1023.5 1023.5 0.2
20/09:00pm 13.2 11.6 8.9 75 2.2 SW 7 13 4 7 1023.7 1023.7 0.2
20/08:30pm 13.2 11.4 9.5 78 1.9 W 9 15 5 8 1023.6 1023.6 0.2
20/08:00pm 13.6 12.8 9.6 77 2.0 WSW 4 7 2 4 1023.6 1023.6 0.2
20/07:30pm 13.6 12.2 9.6 77 2.0 WSW 7 11 4 6 1023.5 1023.5 0.2
20/07:00pm 13.3 11.5 9.5 78 1.9 WSW 9 17 5 9 1023.4 1023.4 0.2
20/06:30pm 13.5 11.8 9.7 78 1.9 WSW 9 15 5 8 1023.2 1023.2 0.2
20/06:00pm 13.3 12.2 9.9 80 1.7 WSW 6 9 3 5 1023.2 1023.2 0.2
20/05:30pm 13.3 11.3 10.1 81 1.7 WSW 11 19 6 10 1023.2 1023.2 0.2
20/05:00pm 13.8 11.5 10.6 81 1.7 W 13 20 7 11 1023.1 1023.1 0.2
20/04:30pm 14.6 11.7 9.8 73 2.5 W 15 22 8 12 1023.0 1023.0 0.2
20/04:00pm 14.9 12.3 9.5 70 2.8 W 13 19 7 10 1023.0 1023.0 0.2
20/03:30pm 15.2 12.4 8.7 65 3.3 WNW 13 19 7 10 1023.2 1023.2 0.2
20/03:00pm 15.8 13.2 7.8 59 4.0 W 11 17 6 9 1023.2 1023.2 0.2
20/02:30pm 15.8 12.9 8.3 61 3.8 W 13 19 7 10 1023.4 1023.4 0.2
20/02:00pm 15.5 12.8 7.5 59 4.0 W 11 15 6 8 1023.5 1023.5 0.2
20/01:30pm 16.3 13.6 7.5 56 4.4 W 11 20 6 11 1023.7 1023.7 0.2
20/01:00pm 15.1 12.9 6.1 55 4.3 SW 7 13 4 7 1024.0 1024.0 0.0
20/12:30pm 14.9 12.5 7.0 59 3.9 W 9 13 5 7 1024.7 1024.7 0.0
20/12:00pm 15.2 12.8 7.0 58 4.0 WSW 9 17 5 9 1025.2 1025.2 0.0
20/11:30am 14.7 12.8 6.5 58 4.0 SSW 6 9 3 5 1025.7 1025.7 0.0
20/11:00am 14.1 12.1 6.9 62 3.5 SW 7 11 4 6 1026.0 1026.0 0.0
20/10:30am 14.3 12.0 7.6 64 3.3 SW 9 17 5 9 1026.0 1026.0 0.0
20/10:00am 13.8 11.8 7.1 64 3.2 SW 7 13 4 7 1025.8 1025.8 0.0
20/09:30am 12.9 11.0 7.4 69 2.7 S 7 9 4 5 1025.7 1025.7 0.0
20/09:00am 12.6 10.7 7.5 71 2.5 SSW 7 11 4 6 1025.6 1025.6 0.2
20/08:30am 11.9 10.2 7.6 75 2.1 S 6 7 3 4 1025.6 1025.6 0.2
20/08:00am 11.3 10.1 8.0 80 1.6 SSW 4 6 2 3 1025.4 1025.4 0.2
20/07:30am 10.6 9.3 7.8 83 1.4 S 4 6 2 3 1024.9 1024.9 0.2
20/07:00am 10.1 8.5 7.9 86 1.1 SSE 6 9 3 5 1024.5 1024.5 0.2
20/06:30am 10.2 9.7 8.0 86 1.1 CALM 0 0 0 0 1024.3 1024.3 0.2
20/06:00am 10.2 9.7 8.0 86 1.1 CALM 0 0 0 0 1024.1 1024.1 0.2
20/05:30am 10.4 9.9 8.0 85 1.2 CALM 0 0 0 0 1023.9 1023.9 0.2
20/05:00am 10.3 9.8 7.7 84 1.2 CALM 0 2 0 1 1023.7 1023.7 0.2
20/04:30am 10.3 9.4 7.7 84 1.2 S 2 4 1 2 1023.5 1023.5 0.2
20/04:00am 10.4 9.4 7.5 82 1.4 S 2 2 1 1 1023.3 1023.3 0.2
20/03:30am 10.3 9.2 7.0 80 1.6 SSE 2 6 1 3 1023.0 1023.0 0.2
20/03:00am 11.1 9.3 7.0 76 1.9 SSW 6 9 3 5 1023.0 1023.0 0.2
20/02:30am 11.0 8.6 7.1 77 1.9 SSW 9 13 5 7 1022.8 1022.8 0.2
20/02:00am 10.9 9.1 7.8 81 1.5 SSW 7 11 4 6 1022.8 1022.8 0.2
20/01:30am 10.8 9.2 8.0 83 1.4 SSW 6 9 3 5 1022.6 1022.6 0.2
20/01:00am 10.9 8.4 8.3 84 1.3 SW 11 15 6 8 1022.4 1022.4 0.2
20/12:30am 10.6 8.5 8.2 85 1.2 SSW 9 15 5 8 1022.4 1022.4 0.2
20/12:00am 10.6 8.1 8.4 86 1.1 SSW 11 17 6 9 1022.3 1022.3 0.2
 
Date/Time
WST
Temp
°C
App
Temp
°C
Dew
Point
°C
Rel
Hum
%
Delta-T
°C
Wind Press
QNH
hPa
Press
MSL
hPa
Rain since
9am
mm
Dir  Spd
km/h
Gust
km/h
Spd
kts
Gust
kts
19/11:30pm 10.8 7.6 8.4 85 1.2 SSW 15 20 8 11 1022.1 1022.1 0.2
19/11:00pm 11.0 7.9 8.8 86 1.1 SSW 15 20 8 11 1022.2 1022.2 0.2
19/10:30pm 11.2 8.5 9.1 87 1.0 SSW 13 20 7 11 1022.2 1022.2 0.2
19/10:00pm 11.1 8.5 9.4 89 0.8 SSW 13 20 7 11 1022.0 1022.0 0.2
19/09:30pm 11.5 8.2 9.6 88 1.0 SSW 17 28 9 15 1021.8 1021.8 0.2
19/09:00pm 11.6 8.3 9.7 88 1.0 SSW 17 26 9 14 1021.4 1021.4 0.2
19/08:30pm 12.0 8.8 9.9 87 1.1 SSW 17 28 9 15 1021.2 1021.2 0.0
19/08:00pm 11.9 8.6 9.6 86 1.2 SW 17 28 9 15 1020.5 1020.5 0.0
19/07:30pm 12.2 9.2 9.4 83 1.4 SSW 15 20 8 11 1020.0 1020.0 0.0
19/07:00pm 12.5 10.7 9.3 81 1.6 SW 9 15 5 8 1019.3 1019.3 0.0
19/06:30pm 12.4 10.6 9.4 82 1.5 SSW 9 17 5 9 1018.9 1018.9 0.0
19/06:00pm 13.0 9.7 9.6 80 1.7 SSW 17 24 9 13 1018.1 1018.1 0.0
19/05:30pm 13.8 10.0 9.0 73 2.4 SSW 19 28 10 15 1017.5 1017.4 0.0
19/05:00pm 14.3 11.0 9.5 73 2.5 SSW 17 22 9 12 1016.9 1016.8 0.0
19/04:30pm 14.7 11.3 9.3 70 2.8 SSW 17 24 9 13 1016.5 1016.4 0.0
19/04:00pm 14.8 10.4 9.0 68 3.0 SSW 22 30 12 16 1016.6 1016.5 0.0
19/03:30pm 15.3 12.1 9.9 70 2.8 SSW 17 24 9 13 1016.1 1016.0 0.0
19/03:00pm 14.9 12.1 9.9 72 2.6 SW 15 28 8 15 1016.0 1015.9 0.0
19/02:30pm 14.5 10.1 9.1 70 2.8 WSW 22 30 12 16 1015.9 1015.8 0.0
19/02:00pm 14.7 11.6 8.9 68 2.9 WSW 15 20 8 11 1015.8 1015.7 0.0
19/01:30pm 15.7 13.7 10.0 69 3.0 W 11 20 6 11 1015.7 1015.6 0.0
19/01:00pm 14.5 12.5 8.5 67 3.0 S 9 17 5 9 1015.7 1015.6 0.0
19/12:30pm 13.7 11.3 8.7 72 2.5 S 11 17 6 9 1015.7 1015.6 0.0
19/12:00pm 13.8 11.0 8.4 70 2.7 WSW 13 26 7 14 1016.0 1015.9 0.0
19/11:30am 15.5 14.0 10.7 73 2.5 WNW 9 17 5 9 1016.1 1016.0 0.0
19/11:00am 14.8 13.1 9.8 72 2.6 NW 9 15 5 8 1016.3 1016.2 0.0
19/10:30am 14.7 13.4 10.1 74 2.4 N 7 13 4 7 1016.4 1016.3 0.0
19/10:00am 13.9 12.2 9.9 77 2.1 N 9 13 5 7 1016.2 1016.1 0.0
19/09:30am 12.9 11.0 10.4 85 1.3 NNE 11 15 6 8 1016.3 1016.2 0.0
19/09:00am 12.6 11.3 11.2 91 0.7 NNE 9 11 5 6 1016.0 1015.9 18.6
19/08:30am 11.4 10.3 10.5 94 0.5 NNE 7 11 4 6 1015.8 1015.7 18.6
19/08:00am 10.1 9.2 9.2 94 0.4 NE 4 7 2 4 1015.9 1015.8 18.6
19/07:30am 8.5 7.2 7.6 94 0.4 NNE 4 4 2 2 1015.8 1015.7 18.6
19/07:00am 8.9 8.1 8.0 94 0.4 E 2 4 1 2 1015.2 1015.1 18.6
19/06:30am 9.1 7.5 8.2 94 0.4 E 6 9 3 5 1014.8 1014.7 18.6
19/06:00am 9.2 7.7 8.3 94 0.4 E 6 7 3 4 1014.9 1014.8 18.6
19/05:30am 9.8 7.9 8.9 94 0.4 SE 9 11 5 6 1014.8 1014.7 18.6
19/05:00am 10.1 8.8 9.2 94 0.4 ESE 6 7 3 4 1014.8 1014.7 18.4
19/04:30am 10.6 9.8 9.7 94 0.5 NNE 4 7 2 4 1014.8 1014.7 18.4
19/04:00am 10.6 10.2 9.7 94 0.5 NE 2 7 1 4 1014.6 1014.5 18.0
19/03:30am 10.6 10.2 9.7 94 0.5 ENE 2 4 1 2 1014.3 1014.2 17.8
19/03:00am 10.8 9.7 9.9 94 0.5 ENE 6 9 3 5 1014.3 1014.2 17.8
19/02:30am 10.8 9.7 9.9 94 0.5 NNE 6 7 3 4 1014.7 1014.6 17.6
19/02:00am 10.7 9.9 9.8 94 0.5 NE 4 6 2 3 1014.8 1014.7 17.6
19/01:30am 10.8 10.1 9.9 94 0.5 NE 4 6 2 3 1015.1 1015.0 17.4
19/01:00am 10.9 10.2 10.0 94 0.5 NNE 4 7 2 4 1015.2 1015.1 17.2
19/12:30am 11.0 9.0 10.1 94 0.5 ENE 11 15 6 8 1014.9 1014.8 17.2
19/12:00am 11.3 11.1 10.4 94 0.5 SSE 2 6 1 3 1015.9 1015.8 16.4

Other Formats:

Comma delimited format used in spreadsheet applications
http://www.bom.gov.au/fwo/IDW60801/IDW60801.94604.axf

JavaScript Object Notation format (JSON) in row-major order
http://www.bom.gov.au/fwo/IDW60801/IDW60801.94604.json